sensor_id;sensor_type;location;lat;lon;timestamp;pressure;altitude;pressure_sealevel;temperature;humidity
80335;BME280;69653;52.674;13.574;2023-12-28T00:01:36;100183.22;;;3.54;90.20
80335;BME280;69653;52.674;13.574;2023-12-28T00:04:01;100189.72;;;3.53;90.76
80335;BME280;69653;52.674;13.574;2023-12-28T00:06:26;100185.94;;;3.54;90.42
80335;BME280;69653;52.674;13.574;2023-12-28T00:08:52;100191.63;;;3.58;90.12
80335;BME280;69653;52.674;13.574;2023-12-28T00:11:17;100193.78;;;3.56;90.05
80335;BME280;69653;52.674;13.574;2023-12-28T00:13:42;100189.47;;;3.60;89.93
80335;BME280;69653;52.674;13.574;2023-12-28T00:16:08;100170.53;;;3.55;90.20
80335;BME280;69653;52.674;13.574;2023-12-28T00:18:33;100181.38;;;3.60;90.02
80335;BME280;69653;52.674;13.574;2023-12-28T00:20:58;100179.41;;;3.50;90.22
80335;BME280;69653;52.674;13.574;2023-12-28T00:23:23;100162.41;;;3.50;90.42
80335;BME280;69653;52.674;13.574;2023-12-28T00:25:49;100161.59;;;3.49;90.29
80335;BME280;69653;52.674;13.574;2023-12-28T00:28:14;100147.53;;;3.52;90.23
80335;BME280;69653;52.674;13.574;2023-12-28T00:30:40;100137.25;;;3.44;90.52
80335;BME280;69653;52.674;13.574;2023-12-28T00:33:05;100142.66;;;3.44;90.36
80335;BME280;69653;52.674;13.574;2023-12-28T00:35:30;100136.72;;;3.52;90.51
80335;BME280;69653;52.674;13.574;2023-12-28T00:37:56;100135.09;;;3.46;90.38
80335;BME280;69653;52.674;13.574;2023-12-28T00:40:21;100131.00;;;3.43;90.37
80335;BME280;69653;52.674;13.574;2023-12-28T00:42:47;100126.69;;;3.37;90.47
80335;BME280;69653;52.674;13.574;2023-12-28T00:45:12;100125.31;;;3.40;90.39
80335;BME280;69653;52.674;13.574;2023-12-28T00:47:38;100128.31;;;3.38;90.94
80335;BME280;69653;52.674;13.574;2023-12-28T00:50:03;100130.72;;;3.40;90.52
80335;BME280;69653;52.674;13.574;2023-12-28T00:52:29;100128.84;;;3.40;90.72
80335;BME280;69653;52.674;13.574;2023-12-28T00:54:54;100129.63;;;3.36;90.54
80335;BME280;69653;52.674;13.574;2023-12-28T00:57:19;100127.50;;;3.38;90.57
80335;BME280;69653;52.674;13.574;2023-12-28T00:59:45;100154.22;;;3.34;90.58
80335;BME280;69653;52.674;13.574;2023-12-28T01:02:10;100145.56;;;3.32;90.70
80335;BME280;69653;52.674;13.574;2023-12-28T01:04:35;100137.19;;;3.34;90.54
80335;BME280;69653;52.674;13.574;2023-12-28T01:07:01;100148.28;;;3.37;90.03
80335;BME280;69653;52.674;13.574;2023-12-28T01:09:28;100132.13;;;3.48;89.83
80335;BME280;69653;52.674;13.574;2023-12-28T01:11:53;100149.69;;;3.50;89.54
80335;BME280;69653;52.674;13.574;2023-12-28T01:14:19;100133.25;;;3.62;89.41
80335;BME280;69653;52.674;13.574;2023-12-28T01:16:44;100134.91;;;3.73;88.57
80335;BME280;69653;52.674;13.574;2023-12-28T01:19:10;100150.63;;;3.76;88.16
80335;BME280;69653;52.674;13.574;2023-12-28T01:21:35;100144.69;;;3.79;88.10
80335;BME280;69653;52.674;13.574;2023-12-28T01:24:01;100140.06;;;3.84;87.55
80335;BME280;69653;52.674;13.574;2023-12-28T01:26:26;100152.53;;;3.85;88.03
80335;BME280;69653;52.674;13.574;2023-12-28T01:28:51;100144.69;;;3.79;87.99
80335;BME280;69653;52.674;13.574;2023-12-28T01:31:16;100146.00;;;3.76;88.06
80335;BME280;69653;52.674;13.574;2023-12-28T01:33:42;100137.59;;;3.73;87.88
80335;BME280;69653;52.674;13.574;2023-12-28T01:36:20;100142.22;;;3.77;87.81
80335;BME280;69653;52.674;13.574;2023-12-28T01:38:46;100140.31;;;3.73;88.28
80335;BME280;69653;52.674;13.574;2023-12-28T01:41:11;100137.31;;;3.69;87.86
80335;BME280;69653;52.674;13.574;2023-12-28T01:43:38;100130.56;;;3.67;87.90
80335;BME280;69653;52.674;13.574;2023-12-28T01:46:04;100123.81;;;3.64;88.52
80335;BME280;69653;52.674;13.574;2023-12-28T01:48:30;100116.22;;;3.66;88.47
80335;BME280;69653;52.674;13.574;2023-12-28T01:50:55;100111.63;;;3.67;87.98
80335;BME280;69653;52.674;13.574;2023-12-28T01:53:22;100111.91;;;3.70;87.37
80335;BME280;69653;52.674;13.574;2023-12-28T01:55:48;100103.53;;;3.67;88.11
80335;BME280;69653;52.674;13.574;2023-12-28T01:58:13;100080.78;;;3.58;88.23
80335;BME280;69653;52.674;13.574;2023-12-28T02:00:39;100081.84;;;3.52;88.47
80335;BME280;69653;52.674;13.574;2023-12-28T02:03:06;100080.78;;;3.53;88.71
80335;BME280;69653;52.674;13.574;2023-12-28T02:05:33;100078.34;;;3.51;88.33
80335;BME280;69653;52.674;13.574;2023-12-28T02:07:58;100044.84;;;3.52;88.28
80335;BME280;69653;52.674;13.574;2023-12-28T02:10:23;100035.63;;;3.58;88.69
80335;BME280;69653;52.674;13.574;2023-12-28T02:12:49;100051.59;;;3.55;87.99
80335;BME280;69653;52.674;13.574;2023-12-28T02:15:15;100047.25;;;3.54;88.26
80335;BME280;69653;52.674;13.574;2023-12-28T02:17:50;100071.88;;;3.62;88.10
80335;BME280;69653;52.674;13.574;2023-12-28T02:20:19;100095.41;;;3.67;87.49
80335;BME280;69653;52.674;13.574;2023-12-28T02:22:46;100105.72;;;3.75;87.16
80335;BME280;69653;52.674;13.574;2023-12-28T02:25:11;100108.97;;;3.77;87.00
80335;BME280;69653;52.674;13.574;2023-12-28T02:27:45;100130.34;;;3.78;87.04
80335;BME280;69653;52.674;13.574;2023-12-28T02:30:16;100130.06;;;3.80;86.79
80335;BME280;69653;52.674;13.574;2023-12-28T02:35:23;100126.84;;;3.83;86.20
80335;BME280;69653;52.674;13.574;2023-12-28T02:37:52;100109.50;;;3.84;86.37
80335;BME280;69653;52.674;13.574;2023-12-28T02:40:19;100109.56;;;3.94;85.56
80335;BME280;69653;52.674;13.574;2023-12-28T02:42:44;100094.16;;;4.05;85.19
80335;BME280;69653;52.674;13.574;2023-12-28T02:45:09;100094.69;;;4.12;84.84
80335;BME280;69653;52.674;13.574;2023-12-28T02:47:35;100098.22;;;4.12;84.41
80335;BME280;69653;52.674;13.574;2023-12-28T02:50:01;100090.91;;;4.18;84.01
80335;BME280;69653;52.674;13.574;2023-12-28T02:52:26;100084.41;;;4.29;83.46
80335;BME280;69653;52.674;13.574;2023-12-28T02:54:51;100095.78;;;4.41;82.57
80335;BME280;69653;52.674;13.574;2023-12-28T02:57:17;100090.38;;;4.46;82.14
80335;BME280;69653;52.674;13.574;2023-12-28T02:59:45;100097.13;;;4.54;82.23
80335;BME280;69653;52.674;13.574;2023-12-28T03:02:10;100099.28;;;4.62;82.09
80335;BME280;69653;52.674;13.574;2023-12-28T03:04:35;100102.25;;;4.70;81.40
80335;BME280;69653;52.674;13.574;2023-12-28T03:07:01;100100.06;;;4.82;80.60
80335;BME280;69653;52.674;13.574;2023-12-28T03:09:26;100091.38;;;4.85;80.16
80335;BME280;69653;52.674;13.574;2023-12-28T03:11:51;100087.88;;;4.90;79.63
80335;BME280;69653;52.674;13.574;2023-12-28T03:14:17;100084.31;;;5.00;78.84
80335;BME280;69653;52.674;13.574;2023-12-28T03:16:43;100087.53;;;5.12;78.45
80335;BME280;69653;52.674;13.574;2023-12-28T03:19:08;100089.94;;;5.23;77.60
80335;BME280;69653;52.674;13.574;2023-12-28T03:21:33;100073.91;;;5.27;76.98
80335;BME280;69653;52.674;13.574;2023-12-28T03:24:03;100068.19;;;5.33;77.37
80335;BME280;69653;52.674;13.574;2023-12-28T03:26:28;100072.22;;;5.41;77.05
80335;BME280;69653;52.674;13.574;2023-12-28T03:28:53;100082.81;;;5.43;77.38
80335;BME280;69653;52.674;13.574;2023-12-28T03:31:19;100083.06;;;5.46;77.19
80335;BME280;69653;52.674;13.574;2023-12-28T03:33:44;100099.28;;;5.56;76.99
80335;BME280;69653;52.674;13.574;2023-12-28T03:36:18;100094.41;;;5.58;77.55
80335;BME280;69653;52.674;13.574;2023-12-28T03:38:43;100090.56;;;5.59;77.66
80335;BME280;69653;52.674;13.574;2023-12-28T03:41:19;100085.97;;;5.60;77.88
80335;BME280;69653;52.674;13.574;2023-12-28T03:43:45;100075.94;;;5.60;77.00
80335;BME280;69653;52.674;13.574;2023-12-28T03:46:11;100090.53;;;5.69;78.64
80335;BME280;69653;52.674;13.574;2023-12-28T03:48:36;100094.84;;;5.70;78.94
80335;BME280;69653;52.674;13.574;2023-12-28T03:51:02;100088.13;;;5.63;79.27
80335;BME280;69653;52.674;13.574;2023-12-28T03:53:28;100095.97;;;5.64;79.73
80335;BME280;69653;52.674;13.574;2023-12-28T03:55:53;100104.13;;;5.64;79.86
80335;BME280;69653;52.674;13.574;2023-12-28T03:58:18;100092.72;;;5.62;81.01
80335;BME280;69653;52.674;13.574;2023-12-28T04:00:44;100091.94;;;5.62;81.40
80335;BME280;69653;52.674;13.574;2023-12-28T04:03:09;100083.25;;;5.60;81.37
80335;BME280;69653;52.674;13.574;2023-12-28T04:05:34;100090.81;;;5.63;81.37
80335;BME280;69653;52.674;13.574;2023-12-28T04:08:00;100083.00;;;5.56;81.86
80335;BME280;69653;52.674;13.574;2023-12-28T04:10:31;100091.69;;;5.58;82.08
80335;BME280;69653;52.674;13.574;2023-12-28T04:12:56;100096.00;;;5.59;82.41
80335;BME280;69653;52.674;13.574;2023-12-28T04:15:23;100104.94;;;5.60;82.37
80335;BME280;69653;52.674;13.574;2023-12-28T04:17:49;100104.13;;;5.59;82.15
80335;BME280;69653;52.674;13.574;2023-12-28T04:20:14;100105.25;;;5.58;82.49
80335;BME280;69653;52.674;13.574;2023-12-28T04:22:39;100113.91;;;5.60;82.55
80335;BME280;69653;52.674;13.574;2023-12-28T04:25:04;100116.06;;;5.63;81.98
80335;BME280;69653;52.674;13.574;2023-12-28T04:27:30;100125.81;;;5.64;81.87
80335;BME280;69653;52.674;13.574;2023-12-28T04:29:55;100125.81;;;5.69;82.16
80335;BME280;69653;52.674;13.574;2023-12-28T04:32:20;100118.75;;;5.68;82.36
80335;BME280;69653;52.674;13.574;2023-12-28T04:34:46;100111.69;;;5.67;81.52
80335;BME280;69653;52.674;13.574;2023-12-28T04:37:11;100119.25;;;5.75;80.76
80335;BME280;69653;52.674;13.574;2023-12-28T04:39:37;100120.56;;;5.83;80.47
80335;BME280;69653;52.674;13.574;2023-12-28T04:42:02;100131.69;;;5.87;80.38
80335;BME280;69653;52.674;13.574;2023-12-28T04:44:28;100123.53;;;5.92;79.30
80335;BME280;69653;52.674;13.574;2023-12-28T04:46:53;100115.34;;;5.97;79.52
80335;BME280;69653;52.674;13.574;2023-12-28T04:49:18;100125.09;;;6.03;79.01
80335;BME280;69653;52.674;13.574;2023-12-28T04:51:44;100091.47;;;5.99;79.21
80335;BME280;69653;52.674;13.574;2023-12-28T04:54:09;100111.78;;;6.06;78.90
80335;BME280;69653;52.674;13.574;2023-12-28T04:56:35;100108.50;;;6.09;78.25
80335;BME280;69653;52.674;13.574;2023-12-28T04:59:00;100113.88;;;6.14;77.71
80335;BME280;69653;52.674;13.574;2023-12-28T05:01:25;100127.97;;;6.21;77.49
80335;BME280;69653;52.674;13.574;2023-12-28T05:03:51;100121.97;;;6.24;76.60
80335;BME280;69653;52.674;13.574;2023-12-28T05:06:16;100126.81;;;6.27;76.68
80335;BME280;69653;52.674;13.574;2023-12-28T05:08:41;100137.91;;;6.36;77.00
80335;BME280;69653;52.674;13.574;2023-12-28T05:11:07;100131.13;;;6.33;76.30
80335;BME280;69653;52.674;13.574;2023-12-28T05:13:32;100147.09;;;6.40;76.17
80335;BME280;69653;52.674;13.574;2023-12-28T05:15:59;100144.94;;;6.37;75.85
80335;BME280;69653;52.674;13.574;2023-12-28T05:18:24;100150.31;;;6.47;75.29
80335;BME280;69653;52.674;13.574;2023-12-28T05:20:49;100159.53;;;6.51;75.04
80335;BME280;69653;52.674;13.574;2023-12-28T05:23:15;100147.03;;;6.50;74.53
80335;BME280;69653;52.674;13.574;2023-12-28T05:25:40;100168.09;;;6.63;75.01
80335;BME280;69653;52.674;13.574;2023-12-28T05:28:05;100167.78;;;6.70;73.29
80335;BME280;69653;52.674;13.574;2023-12-28T05:30:31;100170.75;;;6.73;73.27
80335;BME280;69653;52.674;13.574;2023-12-28T05:32:56;100164.44;;;6.78;73.29
80335;BME280;69653;52.674;13.574;2023-12-28T05:35:21;100170.34;;;6.85;72.88
80335;BME280;69653;52.674;13.574;2023-12-28T05:37:46;100163.00;;;6.86;72.51
80335;BME280;69653;52.674;13.574;2023-12-28T05:40:12;100165.72;;;6.86;72.32
80335;BME280;69653;52.674;13.574;2023-12-28T05:42:37;100165.78;;;6.80;72.30
80335;BME280;69653;52.674;13.574;2023-12-28T05:45:03;100180.19;;;6.81;72.91
80335;BME280;69653;52.674;13.574;2023-12-28T05:47:28;100191.00;;;6.86;72.30
80335;BME280;69653;52.674;13.574;2023-12-28T05:49:53;100196.97;;;6.88;72.62
80335;BME280;69653;52.674;13.574;2023-12-28T05:52:19;100196.16;;;6.88;72.74
80335;BME280;69653;52.674;13.574;2023-12-28T05:54:45;100187.47;;;6.86;72.48
80335;BME280;69653;52.674;13.574;2023-12-28T05:57:10;100189.13;;;6.81;72.39
80335;BME280;69653;52.674;13.574;2023-12-28T05:59:39;100198.41;;;6.80;72.72
80335;BME280;69653;52.674;13.574;2023-12-28T06:02:07;100210.09;;;6.81;72.79
80335;BME280;69653;52.674;13.574;2023-12-28T06:04:32;100195.75;;;6.70;73.05
80335;BME280;69653;52.674;13.574;2023-12-28T06:06:58;100204.97;;;6.74;72.49
80335;BME280;69653;52.674;13.574;2023-12-28T06:09:24;100203.84;;;6.80;72.54
80335;BME280;69653;52.674;13.574;2023-12-28T06:11:49;100204.34;;;6.82;72.54
80335;BME280;69653;52.674;13.574;2023-12-28T06:14:15;100219.28;;;6.85;73.13
80335;BME280;69653;52.674;13.574;2023-12-28T06:16:40;100212.25;;;6.79;73.49
80335;BME280;69653;52.674;13.574;2023-12-28T06:19:05;100200.59;;;6.78;73.80
80335;BME280;69653;52.674;13.574;2023-12-28T06:21:31;100196.78;;;6.79;73.54
80335;BME280;69653;52.674;13.574;2023-12-28T06:23:56;100205.97;;;6.83;74.05
80335;BME280;69653;52.674;13.574;2023-12-28T06:26:22;100207.06;;;6.82;74.23
80335;BME280;69653;52.674;13.574;2023-12-28T06:28:47;100201.38;;;6.84;74.39
80335;BME280;69653;52.674;13.574;2023-12-28T06:31:12;100208.63;;;6.89;74.08
80335;BME280;69653;52.674;13.574;2023-12-28T06:33:38;100210.81;;;6.92;74.41
80335;BME280;69653;52.674;13.574;2023-12-28T06:36:07;100206.75;;;6.89;74.44
80335;BME280;69653;52.674;13.574;2023-12-28T06:38:32;100202.13;;;6.90;75.34
80335;BME280;69653;52.674;13.574;2023-12-28T06:40:58;100201.59;;;6.88;76.06
80335;BME280;69653;52.674;13.574;2023-12-28T06:43:23;100187.72;;;6.89;76.07
80335;BME280;69653;52.674;13.574;2023-12-28T06:45:48;100193.38;;;6.93;76.60
80335;BME280;69653;52.674;13.574;2023-12-28T06:48:14;100209.16;;;6.96;76.60
80335;BME280;69653;52.674;13.574;2023-12-28T06:50:39;100205.88;;;6.94;77.34
80335;BME280;69653;52.674;13.574;2023-12-28T06:53:04;100218.63;;;6.98;77.38
80335;BME280;69653;52.674;13.574;2023-12-28T06:55:30;100214.53;;;7.01;78.02
80335;BME280;69653;52.674;13.574;2023-12-28T06:57:55;100212.34;;;7.03;78.11
80335;BME280;69653;52.674;13.574;2023-12-28T07:00:21;100205.28;;;7.02;78.04
80335;BME280;69653;52.674;13.574;2023-12-28T07:02:46;100200.66;;;7.02;78.36
80335;BME280;69653;52.674;13.574;2023-12-28T07:05:11;100206.91;;;7.03;78.31
80335;BME280;69653;52.674;13.574;2023-12-28T07:07:38;100213.44;;;7.02;78.81
80335;BME280;69653;52.674;13.574;2023-12-28T07:10:04;100217.78;;;7.03;78.88
80335;BME280;69653;52.674;13.574;2023-12-28T07:12:30;100216.19;;;6.97;79.43
80335;BME280;69653;52.674;13.574;2023-12-28T07:14:55;100214.81;;;6.99;79.44
80335;BME280;69653;52.674;13.574;2023-12-28T07:17:20;100216.66;;;7.04;79.14
80335;BME280;69653;52.674;13.574;2023-12-28T07:19:46;100221.31;;;7.03;79.12
80335;BME280;69653;52.674;13.574;2023-12-28T07:22:11;100221.31;;;7.03;79.46
80335;BME280;69653;52.674;13.574;2023-12-28T07:24:36;100230.81;;;7.06;79.44
80335;BME280;69653;52.674;13.574;2023-12-28T07:27:02;100238.41;;;7.04;79.65
80335;BME280;69653;52.674;13.574;2023-12-28T07:29:27;100245.47;;;7.05;79.66
80335;BME280;69653;52.674;13.574;2023-12-28T07:31:53;100244.41;;;7.06;79.65
80335;BME280;69653;52.674;13.574;2023-12-28T07:34:19;100238.19;;;7.00;79.86
80335;BME280;69653;52.674;13.574;2023-12-28T07:36:44;100246.88;;;7.02;79.45
80335;BME280;69653;52.674;13.574;2023-12-28T07:39:10;100246.06;;;7.02;80.16
80335;BME280;69653;52.674;13.574;2023-12-28T07:41:35;100247.16;;;7.01;79.91
80335;BME280;69653;52.674;13.574;2023-12-28T07:44:01;100250.19;;;6.94;80.08
80335;BME280;69653;52.674;13.574;2023-12-28T07:46:26;100246.63;;;6.99;80.02
80335;BME280;69653;52.674;13.574;2023-12-28T07:48:51;100253.44;;;6.96;80.31
80335;BME280;69653;52.674;13.574;2023-12-28T07:51:16;100256.44;;;6.95;80.27
80335;BME280;69653;52.674;13.574;2023-12-28T07:53:42;100258.06;;;6.96;80.01
80335;BME280;69653;52.674;13.574;2023-12-28T07:56:07;100262.94;;;6.99;80.61
80335;BME280;69653;52.674;13.574;2023-12-28T07:58:33;100271.84;;;7.04;80.38
80335;BME280;69653;52.674;13.574;2023-12-28T08:00:58;100276.19;;;7.05;80.06
80335;BME280;69653;52.674;13.574;2023-12-28T08:03:23;100275.63;;;7.08;79.89
80335;BME280;69653;52.674;13.574;2023-12-28T08:05:48;100280.78;;;7.10;80.32
80335;BME280;69653;52.674;13.574;2023-12-28T08:08:14;100289.72;;;7.15;79.82
80335;BME280;69653;52.674;13.574;2023-12-28T08:10:39;100290.81;;;7.14;79.94
80335;BME280;69653;52.674;13.574;2023-12-28T08:13:04;100297.84;;;7.20;79.58
80335;BME280;69653;52.674;13.574;2023-12-28T08:15:30;100283.91;;;7.27;79.22
80335;BME280;69653;52.674;13.574;2023-12-28T08:17:55;100301.25;;;7.36;79.14
80335;BME280;69653;52.674;13.574;2023-12-28T08:20:20;100299.03;;;7.38;79.16
80335;BME280;69653;52.674;13.574;2023-12-28T08:22:45;100299.03;;;7.38;78.75
80335;BME280;69653;52.674;13.574;2023-12-28T08:25:11;100302.28;;;7.40;78.97
80335;BME280;69653;52.674;13.574;2023-12-28T08:27:36;100305.50;;;7.47;78.85
80335;BME280;69653;52.674;13.574;2023-12-28T08:30:01;100310.34;;;7.50;78.71
80335;BME280;69653;52.674;13.574;2023-12-28T08:32:27;100309.78;;;7.53;78.85
80335;BME280;69653;52.674;13.574;2023-12-28T08:34:52;100306.47;;;7.56;78.83
80335;BME280;69653;52.674;13.574;2023-12-28T08:37:18;100307.03;;;7.58;78.50
80335;BME280;69653;52.674;13.574;2023-12-28T08:39:43;100316.50;;;7.61;78.44
80335;BME280;69653;52.674;13.574;2023-12-28T08:42:08;100311.59;;;7.63;78.23
80335;BME280;69653;52.674;13.574;2023-12-28T08:44:34;100308.00;;;7.67;78.50
80335;BME280;69653;52.674;13.574;2023-12-28T08:47:00;100305.28;;;7.67;78.18
80335;BME280;69653;52.674;13.574;2023-12-28T08:49:25;100306.63;;;7.70;77.93
80335;BME280;69653;52.674;13.574;2023-12-28T08:51:51;100301.44;;;7.73;77.60
80335;BME280;69653;52.674;13.574;2023-12-28T08:54:16;100325.09;;;7.73;77.56
80335;BME280;69653;52.674;13.574;2023-12-28T08:56:42;100321.00;;;7.75;77.57
80335;BME280;69653;52.674;13.574;2023-12-28T08:59:07;100310.06;;;7.80;77.53
80335;BME280;69653;52.674;13.574;2023-12-28T09:01:32;100319.56;;;7.83;77.70
80335;BME280;69653;52.674;13.574;2023-12-28T09:03:58;100316.47;;;7.90;76.99
80335;BME280;69653;52.674;13.574;2023-12-28T09:06:23;100313.75;;;7.90;76.85
80335;BME280;69653;52.674;13.574;2023-12-28T09:08:50;100322.97;;;7.94;76.73
80335;BME280;69653;52.674;13.574;2023-12-28T09:11:16;100332.78;;;7.95;76.78
80335;BME280;69653;52.674;13.574;2023-12-28T09:13:42;100327.84;;;7.97;76.53
80335;BME280;69653;52.674;13.574;2023-12-28T09:16:09;100334.69;;;7.94;76.75
80335;BME280;69653;52.674;13.574;2023-12-28T09:18:36;100322.97;;;7.94;76.18
80335;BME280;69653;52.674;13.574;2023-12-28T09:21:03;100337.13;;;7.96;76.34
80335;BME280;69653;52.674;13.574;2023-12-28T09:23:28;100327.84;;;7.97;76.24
80335;BME280;69653;52.674;13.574;2023-12-28T09:25:53;100326.38;;;8.04;75.79
80335;BME280;69653;52.674;13.574;2023-12-28T09:28:19;100320.38;;;8.07;75.57
80335;BME280;69653;52.674;13.574;2023-12-28T09:30:44;100309.78;;;8.06;75.28
80335;BME280;69653;52.674;13.574;2023-12-28T09:33:09;100307.31;;;8.04;75.56
80335;BME280;69653;52.674;13.574;2023-12-28T09:35:35;100303.47;;;8.10;75.58
80335;BME280;69653;52.674;13.574;2023-12-28T09:38:01;100300.19;;;8.08;75.46
80335;BME280;69653;52.674;13.574;2023-12-28T09:40:26;100305.59;;;8.13;75.24
80335;BME280;69653;52.674;13.574;2023-12-28T09:43:00;100302.81;;;8.18;75.08
80335;BME280;69653;52.674;13.574;2023-12-28T09:45:26;100309.06;;;8.19;75.30
80335;BME280;69653;52.674;13.574;2023-12-28T09:47:52;100312.31;;;8.21;74.90
80335;BME280;69653;52.674;13.574;2023-12-28T09:50:18;100302.97;;;8.27;74.65
80335;BME280;69653;52.674;13.574;2023-12-28T09:52:43;100298.66;;;8.26;74.27
80335;BME280;69653;52.674;13.574;2023-12-28T09:55:09;100289.09;;;8.28;74.43
80335;BME280;69653;52.674;13.574;2023-12-28T09:57:35;100281.75;;;8.29;73.81
80335;BME280;69653;52.674;13.574;2023-12-28T10:00:01;100286.31;;;8.34;74.11
80335;BME280;69653;52.674;13.574;2023-12-28T10:02:26;100284.84;;;8.41;74.06
80335;BME280;69653;52.674;13.574;2023-12-28T10:04:52;100283.63;;;8.52;73.73
80335;BME280;69653;52.674;13.574;2023-12-28T10:07:18;100282.81;;;8.70;72.90
80335;BME280;69653;52.674;13.574;2023-12-28T10:09:44;100285.16;;;8.96;72.13
80335;BME280;69653;52.674;13.574;2023-12-28T10:12:09;100281.66;;;9.09;71.46
80335;BME280;69653;52.674;13.574;2023-12-28T10:14:35;100281.25;;;9.34;70.62
80335;BME280;69653;52.674;13.574;2023-12-28T10:17:00;100277.28;;;9.59;69.20
80335;BME280;69653;52.674;13.574;2023-12-28T10:19:27;100270.03;;;9.82;69.01
80335;BME280;69653;52.674;13.574;2023-12-28T10:21:52;100258.28;;;10.08;67.51
80335;BME280;69653;52.674;13.574;2023-12-28T10:24:18;100269.06;;;10.54;65.77
80335;BME280;69653;52.674;13.574;2023-12-28T10:26:43;100288.53;;;10.89;64.76
80335;BME280;69653;52.674;13.574;2023-12-28T10:29:09;100272.38;;;11.01;63.80
80335;BME280;69653;52.674;13.574;2023-12-28T10:31:34;100259.19;;;11.03;63.66
80335;BME280;69653;52.674;13.574;2023-12-28T10:34:00;100274.38;;;11.31;63.00
80335;BME280;69653;52.674;13.574;2023-12-28T10:36:28;100268.41;;;11.60;61.50
80335;BME280;69653;52.674;13.574;2023-12-28T10:38:54;100278.53;;;11.82;60.64
80335;BME280;69653;52.674;13.574;2023-12-28T10:41:20;100258.84;;;11.71;60.90
80335;BME280;69653;52.674;13.574;2023-12-28T10:46:27;100277.75;;;11.59;61.24
80335;BME280;69653;52.674;13.574;2023-12-28T10:49:30;100273.06;;;11.82;60.12
80335;BME280;69653;52.674;13.574;2023-12-28T10:51:51;100276.56;;;12.22;58.91
80335;BME280;69653;52.674;13.574;2023-12-28T10:59:58;100285.41;;;12.10;59.70
80335;BME280;69653;52.674;13.574;2023-12-28T11:02:29;100282.88;;;12.22;59.29
80335;BME280;69653;52.674;13.574;2023-12-28T11:04:59;100278.53;;;12.30;58.63
80335;BME280;69653;52.674;13.574;2023-12-28T11:07:26;100275.53;;;12.48;58.39
80335;BME280;69653;52.674;13.574;2023-12-28T11:10:03;100282.47;;;12.46;58.50
80335;BME280;69653;52.674;13.574;2023-12-28T11:12:30;100280.22;;;12.56;58.05
80335;BME280;69653;52.674;13.574;2023-12-28T11:14:57;100275.53;;;12.65;57.82
80335;BME280;69653;52.674;13.574;2023-12-28T11:17:23;100289.25;;;12.74;57.34
80335;BME280;69653;52.674;13.574;2023-12-28T11:19:50;100276.38;;;12.75;57.74
80335;BME280;69653;52.674;13.574;2023-12-28T11:22:16;100274.72;;;12.39;58.43
80335;BME280;69653;52.674;13.574;2023-12-28T11:24:41;100284.13;;;12.07;58.88
80335;BME280;69653;52.674;13.574;2023-12-28T11:27:07;100283.41;;;11.62;60.74
80335;BME280;69653;52.674;13.574;2023-12-28T11:29:34;100282.44;;;11.36;61.80
80335;BME280;69653;52.674;13.574;2023-12-28T11:31:59;100278.47;;;10.98;62.60
80335;BME280;69653;52.674;13.574;2023-12-28T11:34:30;100266.25;;;10.82;63.52
80335;BME280;69653;52.674;13.574;2023-12-28T11:36:57;100264.53;;;10.86;63.82
80335;BME280;69653;52.674;13.574;2023-12-28T11:39:32;100269.53;;;10.70;64.12
80335;BME280;69653;52.674;13.574;2023-12-28T11:42:07;100266.22;;;10.59;64.58
80335;BME280;69653;52.674;13.574;2023-12-28T11:44:43;100261.47;;;10.51;64.49
80335;BME280;69653;52.674;13.574;2023-12-28T11:47:23;100262.97;;;10.57;65.14
80335;BME280;69653;52.674;13.574;2023-12-28T11:49:49;100259.31;;;10.62;64.24
80335;BME280;69653;52.674;13.574;2023-12-28T11:52:29;100245.19;;;10.82;63.81
80335;BME280;69653;52.674;13.574;2023-12-28T11:54:55;100238.97;;;11.35;62.16
80335;BME280;69653;52.674;13.574;2023-12-28T11:57:21;100236.31;;;11.83;61.20
80335;BME280;69653;52.674;13.574;2023-12-28T11:59:51;100233.31;;;12.01;59.75
80335;BME280;69653;52.674;13.574;2023-12-28T12:02:18;100216.41;;;12.08;59.04
80335;BME280;69653;52.674;13.574;2023-12-28T12:04:43;100210.78;;;12.22;59.07
80335;BME280;69653;52.674;13.574;2023-12-28T12:07:09;100209.38;;;12.24;58.42
80335;BME280;69653;52.674;13.574;2023-12-28T12:09:34;100214.22;;;12.44;58.08
80335;BME280;69653;52.674;13.574;2023-12-28T12:12:03;100213.09;;;12.45;57.72
80335;BME280;69653;52.674;13.574;2023-12-28T12:14:29;100215.38;;;12.60;57.13
80335;BME280;69653;52.674;13.574;2023-12-28T12:16:56;100200.69;;;12.65;57.10
80335;BME280;69653;52.674;13.574;2023-12-28T12:19:25;100211.66;;;12.56;57.02
80335;BME280;69653;52.674;13.574;2023-12-28T12:21:57;100205.50;;;12.59;56.60
80335;BME280;69653;52.674;13.574;2023-12-28T12:24:23;100211.34;;;12.58;56.70
80335;BME280;69653;52.674;13.574;2023-12-28T12:26:51;100219.06;;;12.64;56.74
80335;BME280;69653;52.674;13.574;2023-12-28T12:29:17;100209.06;;;12.51;56.78
80335;BME280;69653;52.674;13.574;2023-12-28T12:31:44;100222.47;;;12.53;56.97
80335;BME280;69653;52.674;13.574;2023-12-28T12:34:12;100217.66;;;11.93;57.95
80335;BME280;69653;52.674;13.574;2023-12-28T12:36:38;100221.31;;;11.72;58.69
80335;BME280;69653;52.674;13.574;2023-12-28T12:39:04;100204.69;;;11.77;59.03
80335;BME280;69653;52.674;13.574;2023-12-28T12:41:33;100213.00;;;11.32;59.80
80335;BME280;69653;52.674;13.574;2023-12-28T12:43:59;100210.28;;;11.32;60.05
80335;BME280;69653;52.674;13.574;2023-12-28T12:46:24;100207.53;;;11.32;59.80
80335;BME280;69653;52.674;13.574;2023-12-28T12:51:22;100199.91;;;11.20;60.62
80335;BME280;69653;52.674;13.574;2023-12-28T12:53:48;100189.81;;;11.30;60.39
80335;BME280;69653;52.674;13.574;2023-12-28T12:56:13;100201.84;;;11.20;60.64